createdAt,value
2023-06-07T00:02:26.706Z,100.00
2023-06-07T00:08:20.152Z,100.00
2023-06-07T00:14:20.117Z,100.00
2023-06-07T00:20:08.162Z,100.00
2023-06-07T00:32:16.229Z,100.00
2023-06-07T00:38:16.999Z,100.00
2023-06-07T00:43:54.725Z,100.00
2023-06-07T00:49:58.749Z,100.00
2023-06-07T00:56:04.302Z,100.00
2023-06-07T01:01:54.744Z,100.00
2023-06-07T01:07:35.380Z,100.00
2023-06-07T01:13:39.884Z,100.00
2023-06-07T01:19:57.710Z,100.00
2023-06-07T01:26:15.842Z,100.00
2023-06-07T01:39:09.429Z,100.00
2023-06-07T01:51:03.255Z,100.00
2023-06-07T01:56:36.271Z,100.00
2023-06-07T02:02:13.274Z,100.00
2023-06-07T02:07:40.270Z,100.00
2023-06-07T02:13:06.307Z,100.00
2023-06-07T02:18:35.291Z,100.00
2023-06-07T02:24:00.415Z,100.00
2023-06-07T02:29:25.301Z,100.00
2023-06-07T02:34:53.292Z,100.00
2023-06-07T02:40:20.288Z,100.00
2023-06-07T02:45:45.289Z,100.00
2023-06-07T02:51:12.324Z,100.00
2023-06-07T02:56:40.439Z,100.00
2023-06-07T03:02:04.326Z,100.00
2023-06-07T03:07:33.310Z,100.00
2023-06-07T03:13:00.308Z,100.00
2023-06-07T03:18:27.322Z,100.00
2023-06-07T03:24:03.410Z,100.00
2023-06-07T03:29:28.323Z,100.00
2023-06-07T03:34:53.301Z,100.00
2023-06-07T03:40:22.336Z,100.00
2023-06-07T03:45:55.313Z,100.00
2023-06-07T03:51:20.438Z,100.00
2023-06-07T03:56:50.332Z,100.00
2023-06-07T04:02:16.377Z,100.00
2023-06-07T04:07:41.362Z,100.00
2023-06-07T04:13:09.335Z,100.00
2023-06-07T04:18:34.344Z,100.00
2023-06-07T04:24:05.577Z,100.00
2023-06-07T04:29:33.378Z,100.00
2023-06-07T04:34:59.344Z,100.00
2023-06-07T04:40:25.500Z,100.00
2023-06-07T04:45:54.475Z,100.00
2023-06-07T04:51:21.390Z,100.00
2023-06-07T04:56:46.348Z,100.00
2023-06-07T05:02:14.388Z,100.00
2023-06-07T05:07:40.399Z,100.00
2023-06-07T05:13:05.496Z,100.00
2023-06-07T05:18:33.389Z,100.00
2023-06-07T05:24:04.449Z,100.00
2023-06-07T05:29:29.398Z,100.00
2023-06-07T05:34:57.592Z,100.00
2023-06-07T05:40:25.450Z,100.00
2023-06-07T05:45:49.382Z,100.00
2023-06-07T05:51:18.391Z,100.00
2023-06-07T05:56:42.419Z,100.00
2023-06-07T06:02:07.434Z,100.00
2023-06-07T06:07:35.416Z,100.00
2023-06-07T06:13:00.445Z,100.00
2023-06-07T06:18:25.402Z,100.00
2023-06-07T06:23:54.325Z,100.00
2023-06-07T06:29:18.477Z,100.00
2023-06-07T06:34:43.454Z,100.00
2023-06-07T06:40:12.452Z,100.00
2023-06-07T06:45:37.472Z,100.00
2023-06-07T06:51:01.598Z,100.00
2023-06-07T06:56:30.538Z,100.00
2023-06-07T07:02:04.516Z,100.00
2023-06-07T07:07:30.525Z,100.00
2023-06-07T07:13:02.199Z,100.00
2023-06-07T07:18:27.451Z,100.00
2023-06-07T07:23:54.484Z,100.00
2023-06-07T07:29:22.479Z,100.00
2023-06-07T07:34:47.511Z,100.00
2023-06-07T07:40:13.593Z,100.00
2023-06-07T07:45:40.486Z,100.00
2023-06-07T07:51:07.499Z,100.00
2023-06-07T07:56:32.814Z,100.00
2023-06-07T08:02:00.474Z,100.00
2023-06-07T08:07:24.507Z,100.00
2023-06-07T08:12:49.508Z,100.00
2023-06-07T08:18:16.541Z,100.00
2023-06-07T08:23:41.581Z,100.00
2023-06-07T08:29:05.496Z,100.00
2023-06-07T08:34:35.493Z,100.00
2023-06-07T08:40:01.502Z,100.00
2023-06-07T08:45:26.587Z,100.00
2023-06-07T08:50:54.824Z,100.00
2023-06-07T08:56:20.518Z,100.00
2023-06-07T09:01:46.596Z,100.00
2023-06-07T09:07:18.281Z,100.00
2023-06-07T09:12:43.510Z,100.00
2023-06-07T09:18:10.667Z,100.00
2023-06-07T09:23:38.625Z,100.00
2023-06-07T09:29:09.573Z,100.00
2023-06-07T09:34:38.522Z,100.00
2023-06-07T09:40:06.782Z,100.00
2023-06-07T09:45:33.558Z,100.00
2023-06-07T09:51:11.575Z,100.00
2023-06-07T09:56:39.594Z,100.00
2023-06-07T10:02:04.590Z,100.00
2023-06-07T10:07:31.565Z,100.00
2023-06-07T10:12:59.559Z,100.00
2023-06-07T10:18:29.658Z,100.00
2023-06-07T10:24:00.686Z,100.00
2023-06-07T10:29:39.599Z,100.00
2023-06-07T10:35:05.602Z,100.00
2023-06-07T10:40:33.618Z,100.00
2023-06-07T10:46:00.642Z,100.00
2023-06-07T10:51:27.848Z,100.00
2023-06-07T10:56:54.599Z,100.00
2023-06-07T11:02:34.780Z,100.00
2023-06-07T11:07:59.793Z,100.00
2023-06-07T11:13:24.703Z,100.00
2023-06-07T11:19:15.674Z,100.00
2023-06-07T11:24:43.940Z,100.00
2023-06-07T11:30:10.665Z,100.00
2023-06-07T11:35:40.814Z,100.00
2023-06-07T11:41:05.632Z,100.00
2023-06-07T11:46:30.688Z,100.00
2023-06-07T11:51:58.668Z,100.00
2023-06-07T11:57:23.650Z,100.00
2023-06-07T12:02:49.744Z,100.00
2023-06-07T12:08:21.921Z,100.00
2023-06-07T12:13:52.731Z,100.00
2023-06-07T12:19:18.658Z,96.68
2023-06-07T12:24:48.668Z,100.00
2023-06-07T12:30:15.693Z,100.00
2023-06-07T12:35:39.703Z,100.00
2023-06-07T12:41:07.712Z,100.00
2023-06-07T12:46:31.960Z,100.00
2023-06-07T12:51:56.701Z,100.00
2023-06-07T12:57:25.751Z,100.00
2023-06-07T13:02:51.819Z,100.00
2023-06-07T13:08:15.815Z,100.00
2023-06-07T13:13:44.090Z,100.00
2023-06-07T13:19:08.689Z,100.00
2023-06-07T13:24:33.729Z,100.00
2023-06-07T13:30:02.853Z,100.00
2023-06-07T13:35:30.114Z,100.00
2023-06-07T13:40:57.663Z,100.00
2023-06-07T13:46:26.791Z,100.00
2023-06-07T13:51:51.748Z,100.00
2023-06-07T13:57:17.779Z,100.00
2023-06-07T14:02:44.928Z,100.00
2023-06-07T14:08:09.738Z,100.00
2023-06-07T14:13:35.012Z,100.00
2023-06-07T14:19:02.762Z,100.00
2023-06-07T14:24:33.761Z,100.00
2023-06-07T14:29:58.771Z,100.00
2023-06-07T14:35:26.957Z,100.00
2023-06-07T14:40:51.896Z,100.00
2023-06-07T14:46:16.798Z,100.00
2023-06-07T14:51:44.758Z,99.08
2023-06-07T14:57:08.785Z,98.02
2023-06-07T15:02:33.975Z,90.71
2023-06-07T15:08:00.775Z,94.03
2023-06-07T15:13:26.919Z,87.62
2023-06-07T15:18:50.792Z,90.28
2023-06-07T15:24:19.075Z,81.58
2023-06-07T15:29:49.856Z,84.75
2023-06-07T15:35:15.936Z,86.00
2023-06-07T15:40:42.857Z,86.11
2023-06-07T15:46:08.024Z,86.43
2023-06-07T15:51:31.801Z,87.85
2023-06-07T15:56:59.847Z,85.50
2023-06-07T16:02:25.878Z,86.22
2023-06-07T16:07:50.827Z,83.39
2023-06-07T16:13:17.833Z,84.54
2023-06-07T16:18:43.855Z,79.48
2023-06-07T16:24:10.977Z,82.70
2023-06-07T16:29:45.855Z,77.02
2023-06-07T16:35:10.915Z,78.46
2023-06-07T16:40:35.828Z,83.81
2023-06-07T16:46:03.896Z,77.47
2023-06-07T16:51:27.882Z,77.17
2023-06-07T16:56:52.871Z,73.24
2023-06-07T17:02:19.897Z,76.30
2023-06-07T17:07:44.867Z,75.97
2023-06-07T17:13:08.910Z,79.51
2023-06-07T17:18:36.981Z,78.78
2023-06-07T17:24:01.254Z,83.25
2023-06-07T17:29:31.907Z,88.80
2023-06-07T17:34:59.921Z,92.59
2023-06-07T17:40:25.892Z,96.57
2023-06-07T17:45:50.935Z,100.00
2023-06-07T17:51:17.903Z,100.00
2023-06-07T17:56:42.901Z,100.00
2023-06-07T18:02:10.903Z,100.00
2023-06-07T18:07:38.922Z,100.00
2023-06-07T18:13:02.917Z,100.00
2023-06-07T18:18:27.964Z,100.00
2023-06-07T18:23:56.065Z,100.00
2023-06-07T18:29:22.954Z,100.00
2023-06-07T18:34:46.942Z,100.00
2023-06-07T18:40:15.947Z,100.00
2023-06-07T18:45:46.066Z,100.00
2023-06-07T18:56:35.962Z,100.00
2023-06-07T19:02:03.057Z,100.00
2023-06-07T19:07:27.093Z,100.00
2023-06-07T19:12:55.107Z,100.00
2023-06-07T19:18:27.095Z,100.00
2023-06-07T19:23:53.120Z,100.00
2023-06-07T19:29:22.420Z,100.00
2023-06-07T19:34:46.980Z,100.00
2023-06-07T19:40:10.993Z,100.00
2023-06-07T19:45:38.967Z,100.00
2023-06-07T19:51:03.990Z,100.00
2023-06-07T19:56:30.000Z,100.00
2023-06-07T20:01:57.112Z,100.00
2023-06-07T20:07:23.006Z,100.00
2023-06-07T20:12:47.034Z,100.00
2023-06-07T20:18:14.973Z,100.00
2023-06-07T20:23:39.088Z,100.00
2023-06-07T20:29:05.025Z,100.00
2023-06-07T20:34:32.061Z,100.00
2023-06-07T20:39:57.029Z,100.00
2023-06-07T20:45:35.035Z,100.00
2023-06-07T20:51:06.038Z,100.00
2023-06-07T20:56:30.025Z,100.00
2023-06-07T21:01:59.138Z,100.00
2023-06-07T21:07:26.083Z,100.00
2023-06-07T21:12:51.038Z,100.00
2023-06-07T21:18:22.087Z,100.00
2023-06-07T21:23:50.073Z,100.00
2023-06-07T21:29:14.056Z,100.00
2023-06-07T21:34:40.093Z,100.00
2023-06-07T21:40:07.392Z,100.00
2023-06-07T21:45:34.099Z,100.00
2023-06-07T21:50:59.061Z,100.00
2023-06-07T21:56:27.053Z,100.00
2023-06-07T22:01:51.131Z,100.00
2023-06-07T22:07:16.061Z,100.00
2023-06-07T22:12:44.070Z,100.00
2023-06-07T22:18:16.115Z,100.00
2023-06-07T22:23:41.123Z,100.00
2023-06-07T22:29:09.110Z,100.00
2023-06-07T22:34:36.089Z,100.00
2023-06-07T22:39:54.081Z,100.00
2023-06-07T22:45:24.105Z,100.00
2023-06-07T22:50:59.100Z,100.00
2023-06-07T22:56:23.116Z,100.00
2023-06-07T23:01:54.155Z,100.00
2023-06-07T23:07:18.102Z,100.00
2023-06-07T23:12:45.125Z,100.00
2023-06-07T23:18:12.643Z,100.00
2023-06-07T23:23:45.144Z,100.00
2023-06-07T23:29:10.155Z,100.00
2023-06-07T23:34:38.144Z,100.00
2023-06-07T23:40:03.683Z,100.00
2023-06-07T23:45:32.151Z,100.00
2023-06-07T23:51:00.149Z,100.00
2023-06-07T23:56:24.145Z,100.00
